Time;durP1;ratioP1;P1;durP2;ratioP2;P2;SDS_P1;SDS_P2;PMS_P1;PMS_P2;Temp;Humidity;BMP_temperature;BMP_pressure;BME280_temperature;BME280_humidity;BME280_pressure;Samples;Min_cycle;Max_cycle;Signal;HPM_P1;HPM_P2
2023/09/20 00:01:52;;;;;;;6.47;3.90;;;14.90;99.90;;;;;;5052706;28;20460;-40
2023/09/20 00:04:20;;;;;;;6.82;4.32;;;14.90;99.90;;;;;;5056051;28;20080;-43
2023/09/20 00:06:48;;;;;;;7.63;4.10;;;14.80;99.90;;;;;;5058868;28;20073;-41
2023/09/20 00:09:17;;;;;;;7.88;4.20;;;14.80;99.90;;;;;;5056702;28;20417;-40
2023/09/20 00:11:46;;;;;;;5.97;3.63;;;14.70;99.90;;;;;;5058615;28;20145;-41
2023/09/20 00:14:13;;;;;;;6.25;4.43;;;14.70;99.90;;;;;;5039210;28;20056;-41
2023/09/20 00:16:41;;;;;;;7.45;4.05;;;14.60;99.90;;;;;;5034091;28;20136;-41
2023/09/20 00:19:08;;;;;;;5.40;4.28;;;14.60;99.90;;;;;;5043259;28;20552;-40
2023/09/20 00:21:36;;;;;;;5.88;4.30;;;14.60;99.90;;;;;;5049930;28;20390;-40
2023/09/20 00:24:04;;;;;;;5.93;4.10;;;14.50;99.90;;;;;;5045796;28;20037;-41
2023/09/20 00:26:33;;;;;;;6.65;3.70;;;14.50;99.90;;;;;;5042483;28;20516;-40
2023/09/20 00:29:05;;;;;;;5.70;3.75;;;14.50;99.90;;;;;;5043424;28;20071;-39
2023/09/20 00:31:33;;;;;;;6.85;4.15;;;14.50;99.90;;;;;;5039469;28;20052;-40
2023/09/20 00:34:03;;;;;;;8.15;3.80;;;14.50;99.90;;;;;;5041979;28;20048;-42
2023/09/20 00:36:31;;;;;;;5.30;3.72;;;14.50;99.90;;;;;;5042141;28;20081;-39
2023/09/20 00:39:00;;;;;;;6.88;3.95;;;14.50;99.90;;;;;;5058468;28;20106;-41
2023/09/20 00:41:28;;;;;;;6.18;3.95;;;14.50;99.90;;;;;;5050251;28;20433;-38
2023/09/20 00:43:58;;;;;;;5.28;4.00;;;14.50;99.90;;;;;;5038097;28;20044;-40
2023/09/20 00:46:25;;;;;;;5.68;3.67;;;14.50;99.90;;;;;;5039019;28;20045;-41
2023/09/20 00:48:55;;;;;;;9.32;3.63;;;14.50;99.90;;;;;;5041204;28;20060;-39
2023/09/20 00:51:24;;;;;;;6.47;3.65;;;14.50;99.90;;;;;;5035572;28;20053;-40
2023/09/20 00:53:54;;;;;;;5.70;3.50;;;14.40;99.90;;;;;;5047530;28;20113;-41
2023/09/20 00:56:22;;;;;;;5.93;3.83;;;14.40;99.90;;;;;;5040379;28;20069;-40
2023/09/20 00:58:50;;;;;;;7.60;3.85;;;14.40;99.90;;;;;;5038425;28;20599;-39
2023/09/20 01:01:19;;;;;;;5.00;3.78;;;14.40;99.90;;;;;;5043437;28;20053;-39
2023/09/20 01:03:47;;;;;;;5.30;3.70;;;14.30;99.90;;;;;;5042295;28;20446;-42
2023/09/20 01:06:17;;;;;;;5.05;3.60;;;14.30;99.90;;;;;;5048873;28;20120;-40
2023/09/20 01:08:48;;;;;;;4.68;3.75;;;14.30;99.90;;;;;;5041430;28;20110;-41
2023/09/20 01:11:16;;;;;;;5.60;3.85;;;14.30;99.90;;;;;;5042746;28;20532;-41
2023/09/20 01:13:44;;;;;;;5.53;3.70;;;14.30;99.90;;;;;;5041974;28;20053;-41
2023/09/20 01:16:14;;;;;;;5.70;3.85;;;14.30;99.90;;;;;;5047881;28;20045;-38
2023/09/20 01:18:44;;;;;;;5.43;3.92;;;14.40;99.90;;;;;;5049556;28;20532;-40
2023/09/20 01:21:12;;;;;;;6.47;3.88;;;14.40;99.90;;;;;;5038689;28;20080;-41
2023/09/20 01:23:42;;;;;;;5.00;3.60;;;14.30;99.90;;;;;;5042923;28;20553;-39
2023/09/20 01:26:13;;;;;;;5.03;3.70;;;14.30;99.90;;;;;;5041634;28;20432;-40
2023/09/20 01:28:41;;;;;;;5.03;3.38;;;14.30;99.90;;;;;;5046561;28;20045;-41
2023/09/20 01:31:10;;;;;;;8.35;4.22;;;14.30;99.90;;;;;;5041900;28;20135;-41
2023/09/20 01:33:38;;;;;;;5.63;3.97;;;14.20;99.90;;;;;;5042761;28;20041;-40
2023/09/20 01:36:06;;;;;;;8.57;3.95;;;14.20;99.90;;;;;;5039658;28;20120;-41
2023/09/20 01:38:34;;;;;;;7.45;4.30;;;14.20;99.90;;;;;;5041595;28;20045;-40
2023/09/20 01:41:04;;;;;;;5.07;3.78;;;14.30;99.90;;;;;;5045079;28;20041;-41
2023/09/20 01:43:31;;;;;;;8.75;4.35;;;14.30;99.90;;;;;;5041564;28;20183;-38
2023/09/20 01:45:59;;;;;;;6.55;4.00;;;14.30;99.90;;;;;;5057390;28;20090;-41
2023/09/20 01:48:27;;;;;;;5.78;3.75;;;14.20;99.90;;;;;;5047588;28;20073;-39
2023/09/20 01:50:55;;;;;;;5.53;3.63;;;14.30;99.90;;;;;;5043649;28;20037;-41
2023/09/20 01:53:24;;;;;;;7.20;3.80;;;14.30;99.90;;;;;;5048459;28;20037;-39
2023/09/20 01:55:52;;;;;;;6.05;3.58;;;14.30;99.90;;;;;;5043961;28;20048;-39
2023/09/20 01:58:19;;;;;;;5.38;3.60;;;14.20;99.90;;;;;;5036858;28;20148;-40
2023/09/20 02:00:50;;;;;;;7.57;4.90;;;14.20;99.90;;;;;;5040811;28;20052;-39
2023/09/20 02:03:18;;;;;;;6.97;4.38;;;14.20;99.90;;;;;;5041095;28;20728;-41
2023/09/20 02:05:48;;;;;;;7.28;4.57;;;14.20;99.90;;;;;;5040068;28;20229;-40
2023/09/20 02:08:17;;;;;;;7.03;4.32;;;14.20;99.90;;;;;;5047819;28;20102;-41
2023/09/20 02:10:45;;;;;;;7.68;4.60;;;14.20;99.90;;;;;;5047279;28;20132;-40
2023/09/20 02:13:16;;;;;;;7.63;4.28;;;14.20;99.90;;;;;;5038870;28;20819;-41
2023/09/20 02:15:46;;;;;;;8.93;3.65;;;14.20;99.90;;;;;;5035554;28;20041;-38
2023/09/20 02:18:14;;;;;;;4.88;3.40;;;14.20;99.90;;;;;;5034656;28;20058;-41
2023/09/20 02:20:42;;;;;;;5.78;3.88;;;14.20;99.90;;;;;;5041612;28;20480;-38
2023/09/20 02:23:13;;;;;;;5.60;4.10;;;14.30;99.90;;;;;;5040486;28;20087;-42
2023/09/20 02:25:43;;;;;;;8.32;4.70;;;14.30;99.90;;;;;;5040914;28;20505;-41
2023/09/20 02:28:11;;;;;;;6.63;3.78;;;14.30;99.90;;;;;;5038711;28;20064;-41
2023/09/20 02:30:41;;;;;;;5.30;3.40;;;14.30;99.90;;;;;;5042617;28;20049;-41
2023/09/20 02:33:10;;;;;;;5.30;3.88;;;14.30;99.90;;;;;;5037747;28;20045;-41
2023/09/20 02:35:39;;;;;;;5.20;3.85;;;14.20;99.90;;;;;;5035745;28;20046;-40
2023/09/20 02:38:07;;;;;;;6.80;4.03;;;14.20;99.90;;;;;;5044004;28;20110;-40
2023/09/20 02:40:35;;;;;;;5.85;3.72;;;14.20;99.90;;;;;;5034372;28;20084;-38
2023/09/20 02:43:08;;;;;;;8.73;3.95;;;14.20;99.90;;;;;;5042364;28;20516;-39
2023/09/20 02:45:39;;;;;;;7.47;4.40;;;14.30;99.90;;;;;;5045880;28;20460;-40
2023/09/20 02:48:08;;;;;;;6.97;4.68;;;14.30;99.90;;;;;;5040443;28;20117;-39
2023/09/20 02:50:36;;;;;;;8.40;4.22;;;14.30;99.90;;;;;;5038750;28;20410;-41
2023/09/20 02:53:05;;;;;;;6.40;4.47;;;14.20;99.90;;;;;;5052296;28;20556;-37
2023/09/20 02:55:34;;;;;;;6.85;4.10;;;14.20;99.90;;;;;;5040943;28;20095;-39
2023/09/20 02:58:01;;;;;;;5.63;4.07;;;14.20;99.90;;;;;;5046106;28;20473;-40
2023/09/20 03:00:33;;;;;;;6.22;3.90;;;14.20;99.90;;;;;;5039345;28;20473;-38
2023/09/20 03:03:04;;;;;;;8.32;3.78;;;14.10;99.90;;;;;;5042054;28;20103;-41
2023/09/20 03:05:33;;;;;;;;;;;14.10;99.90;;;;;;5040430;28;20123;-40
2023/09/20 03:08:13;;;;;;;5.90;3.70;;;14.10;99.90;;;;;;5041899;28;19924;-41
2023/09/20 03:10:42;;;;;;;5.00;3.45;;;14.10;99.90;;;;;;5043934;28;20075;-41
2023/09/20 03:13:14;;;;;;;6.82;4.18;;;14.10;99.90;;;;;;5043810;28;20067;-40
2023/09/20 03:15:43;;;;;;;5.78;3.83;;;14.10;99.90;;;;;;5047782;28;20420;-41
2023/09/20 03:18:14;;;;;;;6.75;4.03;;;14.10;99.90;;;;;;5046480;28;20045;-41
2023/09/20 03:20:49;;;;;;;7.22;3.70;;;14.10;99.90;;;;;;5051121;28;20087;-38
2023/09/20 03:23:17;;;;;;;5.82;4.05;;;14.10;99.90;;;;;;5051311;28;20083;-40
2023/09/20 03:25:45;;;;;;;6.15;4.05;;;14.10;99.90;;;;;;5042085;28;20052;-39
2023/09/20 03:28:22;;;;;;;5.20;3.42;;;14.10;99.90;;;;;;5050584;28;20481;-41
2023/09/20 03:30:51;;;;;;;6.33;3.70;;;14.00;99.90;;;;;;5033225;28;20049;-41
2023/09/20 03:33:21;;;;;;;6.25;3.70;;;14.00;99.90;;;;;;5043443;28;20296;-40
2023/09/20 03:35:51;;;;;;;7.53;4.22;;;13.90;99.90;;;;;;5049815;28;20049;-42
2023/09/20 03:38:19;;;;;;;5.43;3.92;;;13.90;99.90;;;;;;5037201;28;20051;-41
2023/09/20 03:40:46;;;;;;;7.80;4.10;;;13.80;99.90;;;;;;5042105;28;20049;-41
2023/09/20 03:43:14;;;;;;;7.97;4.30;;;13.80;99.90;;;;;;5043037;28;20099;-41
2023/09/20 03:45:47;;;;;;;7.63;4.20;;;13.80;99.90;;;;;;5037193;28;20104;-38
2023/09/20 03:48:16;;;;;;;5.30;3.95;;;13.80;99.90;;;;;;5043646;28;20056;-39
2023/09/20 03:50:45;;;;;;;5.60;4.00;;;13.70;99.90;;;;;;5041949;28;20388;-42
2023/09/20 03:53:13;;;;;;;6.82;4.05;;;13.80;99.90;;;;;;5048084;28;20041;-41
2023/09/20 03:55:46;;;;;;;7.15;3.75;;;13.70;99.90;;;;;;5046135;28;20119;-38
2023/09/20 03:58:13;;;;;;;5.00;3.75;;;13.70;99.90;;;;;;5042769;28;20128;-39
2023/09/20 04:00:42;;;;;;;7.47;4.35;;;13.70;99.90;;;;;;5045245;28;20055;-39
2023/09/20 04:03:12;;;;;;;8.98;3.90;;;13.60;99.90;;;;;;5032587;28;20528;-41
2023/09/20 04:05:40;;;;;;;5.38;3.60;;;13.60;99.90;;;;;;5045406;28;20134;-39
2023/09/20 04:08:16;;;;;;;6.60;3.33;;;13.60;99.90;;;;;;5043447;28;20060;-40
2023/09/20 04:10:45;;;;;;;18.42;4.53;;;13.60;99.90;;;;;;5049150;28;20037;-42
2023/09/20 04:13:14;;;;;;;5.43;3.55;;;13.60;99.90;;;;;;5041261;28;20611;-41
2023/09/20 04:15:42;;;;;;;6.35;4.18;;;13.60;99.90;;;;;;5045516;28;20148;-39
2023/09/20 04:18:11;;;;;;;5.63;3.70;;;13.50;99.90;;;;;;5036467;28;20046;-38
2023/09/20 04:20:39;;;;;;;4.80;3.50;;;13.50;99.90;;;;;;5046831;28;20079;-40
2023/09/20 04:23:09;;;;;;;5.50;3.78;;;13.40;99.90;;;;;;5056126;28;20428;-40
2023/09/20 04:25:38;;;;;;;5.55;3.83;;;13.40;99.90;;;;;;5038133;28;20063;-42
2023/09/20 04:28:05;;;;;;;5.45;3.83;;;13.40;99.90;;;;;;5038513;28;20110;-39
2023/09/20 04:30:34;;;;;;;6.53;3.75;;;13.40;99.90;;;;;;5039746;28;20037;-38
2023/09/20 04:33:03;;;;;;;5.35;3.50;;;13.40;99.90;;;;;;5049440;28;20346;-39
2023/09/20 04:35:36;;;;;;;4.68;3.42;;;13.40;99.90;;;;;;5044719;28;20343;-39
2023/09/20 04:38:07;;;;;;;;;;;13.40;99.90;;;;;;5037878;28;20052;-40
2023/09/20 04:40:35;;;;;;;5.25;3.88;;;13.30;99.90;;;;;;5038986;28;20296;-42
2023/09/20 04:43:02;;;;;;;7.38;4.03;;;13.30;99.90;;;;;;5045039;28;20049;-41
2023/09/20 04:45:30;;;;;;;5.20;3.70;;;13.30;99.90;;;;;;5049412;28;20132;-37
2023/09/20 04:47:57;;;;;;;8.50;4.25;;;13.40;99.90;;;;;;5042687;28;20101;-38
2023/09/20 04:50:25;;;;;;;5.43;4.10;;;13.40;99.90;;;;;;5056366;28;20045;-39
2023/09/20 04:52:54;;;;;;;8.40;5.57;;;13.30;99.90;;;;;;5047854;28;21723;-41
2023/09/20 04:55:21;;;;;;;8.02;5.75;;;13.30;99.90;;;;;;5047232;28;20525;-39
2023/09/20 04:57:49;;;;;;;11.45;6.63;;;13.40;99.90;;;;;;5041191;28;20079;-40
2023/09/20 05:00:20;;;;;;;7.82;4.80;;;13.40;99.90;;;;;;5044023;28;20050;-39
2023/09/20 05:02:48;;;;;;;6.13;4.50;;;13.30;99.90;;;;;;5047410;28;20049;-41
2023/09/20 05:05:16;;;;;;;6.50;4.30;;;13.40;99.90;;;;;;5046940;28;20409;-40
2023/09/20 05:07:44;;;;;;;5.95;4.50;;;13.30;99.90;;;;;;5049932;28;20045;-39
2023/09/20 05:10:12;;;;;;;4.50;3.40;;;13.40;99.90;;;;;;5031203;28;20444;-39
2023/09/20 05:12:39;;;;;;;6.28;3.70;;;13.50;99.90;;;;;;5046916;28;20118;-41
2023/09/20 05:15:07;;;;;;;4.55;3.42;;;13.50;99.90;;;;;;5044693;28;20045;-40
2023/09/20 05:17:35;;;;;;;5.25;3.40;;;13.50;99.90;;;;;;5030906;28;20053;-39
2023/09/20 05:20:02;;;;;;;6.82;3.85;;;13.60;99.90;;;;;;5038419;28;20504;-38
2023/09/20 05:22:30;;;;;;;7.28;4.13;;;13.60;99.90;;;;;;5034477;28;20128;-40
2023/09/20 05:24:58;;;;;;;7.05;4.15;;;13.60;99.90;;;;;;5038746;28;20464;-41
2023/09/20 05:27:25;;;;;;;7.40;3.60;;;13.60;99.90;;;;;;5036199;28;20081;-39
2023/09/20 05:29:53;;;;;;;7.07;4.43;;;13.70;99.90;;;;;;5047710;28;20139;-41
2023/09/20 05:32:21;;;;;;;6.35;3.72;;;13.70;99.90;;;;;;5039479;28;20468;-38
2023/09/20 05:34:48;;;;;;;6.50;3.67;;;13.80;99.90;;;;;;5050030;28;20075;-38
2023/09/20 05:37:15;;;;;;;7.47;3.90;;;13.80;99.90;;;;;;5049495;28;20080;-39
2023/09/20 05:39:48;;;;;;;7.35;3.70;;;13.80;99.90;;;;;;5038703;28;20073;-39
2023/09/20 05:42:15;;;;;;;6.65;4.20;;;13.90;99.90;;;;;;5043667;28;20053;-41
2023/09/20 05:44:43;;;;;;;6.75;4.20;;;13.90;99.90;;;;;;5038205;28;20048;-41
2023/09/20 05:47:11;;;;;;;6.18;3.72;;;14.00;99.90;;;;;;5043678;28;20047;-40
2023/09/20 05:49:38;;;;;;;5.95;4.10;;;14.10;99.90;;;;;;5045269;28;20095;-39
2023/09/20 05:52:06;;;;;;;5.88;4.32;;;14.20;99.90;;;;;;5046103;28;20037;-39
2023/09/20 05:54:34;;;;;;;8.20;4.00;;;14.30;99.90;;;;;;5053439;28;20067;-39
2023/09/20 05:57:02;;;;;;;5.10;3.83;;;14.30;99.90;;;;;;5062530;28;20037;-41
2023/09/20 05:59:31;;;;;;;8.20;4.22;;;14.30;99.90;;;;;;5060493;28;20068;-41
2023/09/20 06:01:58;;;;;;;6.97;4.30;;;14.40;99.90;;;;;;5051223;28;20074;-40
2023/09/20 06:04:25;;;;;;;7.22;4.10;;;14.30;99.90;;;;;;5040281;28;20079;-40
2023/09/20 06:06:54;;;;;;;9.15;4.90;;;14.40;99.90;;;;;;5054049;28;20036;-41
2023/09/20 06:09:21;;;;;;;10.25;5.07;;;14.50;99.90;;;;;;5043696;28;20107;-43
2023/09/20 06:11:49;;;;;;;7.45;4.60;;;14.50;99.90;;;;;;5047491;28;20059;-40
2023/09/20 06:14:16;;;;;;;8.48;4.50;;;14.60;99.90;;;;;;5037353;28;20443;-39
2023/09/20 06:16:44;;;;;;;8.15;4.60;;;14.60;99.90;;;;;;5041814;28;20061;-39
2023/09/20 06:19:11;;;;;;;8.60;4.47;;;14.70;99.90;;;;;;5041821;28;20085;-41
2023/09/20 06:21:41;;;;;;;7.40;4.28;;;14.90;99.90;;;;;;5037187;28;20457;-40
2023/09/20 06:24:11;;;;;;;6.78;4.00;;;14.90;99.90;;;;;;5036171;28;20045;-40
2023/09/20 06:26:43;;;;;;;8.18;4.60;;;14.90;99.90;;;;;;5043189;28;20041;-40
2023/09/20 06:29:12;;;;;;;6.45;4.10;;;15.00;99.90;;;;;;5037428;28;20481;-41
2023/09/20 06:31:40;;;;;;;7.05;4.38;;;15.00;99.90;;;;;;5044326;28;20041;-39
2023/09/20 06:34:07;;;;;;;6.93;4.07;;;15.10;99.90;;;;;;5037662;28;20136;-40
2023/09/20 06:36:35;;;;;;;6.38;4.03;;;15.20;99.90;;;;;;5039329;28;20056;-40
2023/09/20 06:39:05;;;;;;;7.32;4.68;;;15.20;99.90;;;;;;5045929;28;20083;-41
2023/09/20 06:41:32;;;;;;;6.82;4.55;;;15.30;99.90;;;;;;5041903;28;20094;-40
2023/09/20 06:44:05;;;;;;;5.43;4.10;;;15.30;99.90;;;;;;5044934;28;20095;-39
2023/09/20 06:46:34;;;;;;;8.20;4.38;;;15.40;99.90;;;;;;5047218;28;20510;-41
2023/09/20 06:49:02;;;;;;;7.70;4.05;;;15.40;99.90;;;;;;5038784;28;20029;-41
2023/09/20 06:51:30;;;;;;;10.52;4.63;;;15.50;99.90;;;;;;5041946;28;20066;-40
2023/09/20 06:53:58;;;;;;;6.60;3.90;;;15.80;99.90;;;;;;5046058;28;20033;-39
2023/09/20 06:56:26;;;;;;;11.88;7.28;;;15.80;99.90;;;;;;5036341;28;20111;-39
2023/09/20 06:58:55;;;;;;;7.68;5.00;;;15.70;99.90;;;;;;5035049;28;21525;-42
2023/09/20 07:01:25;;;;;;;9.52;4.28;;;15.70;99.90;;;;;;5035604;28;20080;-39
2023/09/20 07:03:52;;;;;;;7.03;4.15;;;15.80;99.90;;;;;;5043843;28;20045;-39
2023/09/20 07:06:20;;;;;;;6.07;4.40;;;15.90;99.90;;;;;;5041293;28;20443;-43
2023/09/20 07:08:47;;;;;;;5.60;4.40;;;16.00;99.90;;;;;;5045276;28;20041;-41
2023/09/20 07:11:16;;;;;;;7.82;4.68;;;16.20;99.90;;;;;;5037338;28;20124;-38
2023/09/20 07:13:45;;;;;;;8.85;4.68;;;16.20;99.90;;;;;;5044224;28;20113;-41
2023/09/20 07:16:12;;;;;;;12.15;4.50;;;16.20;99.90;;;;;;5055594;28;20134;-40
2023/09/20 07:18:44;;;;;;;9.75;4.60;;;16.30;99.90;;;;;;5055517;28;20045;-41
2023/09/20 07:21:14;;;;;;;8.23;4.55;;;16.30;99.90;;;;;;5050355;28;20097;-41
2023/09/20 07:23:41;;;;;;;5.95;4.18;;;16.30;99.90;;;;;;5050253;28;20057;-41
2023/09/20 07:26:09;;;;;;;9.25;4.88;;;16.40;99.90;;;;;;5035307;28;20037;-40
2023/09/20 07:28:36;;;;;;;7.53;4.90;;;16.60;99.90;;;;;;5033026;28;20045;-40
2023/09/20 07:31:06;;;;;;;7.07;4.88;;;16.70;99.90;;;;;;5047665;28;20753;-40
2023/09/20 07:33:33;;;;;;;6.45;4.43;;;16.70;99.90;;;;;;5044088;28;20429;-41
2023/09/20 07:36:01;;;;;;;7.80;4.47;;;16.80;99.90;;;;;;5040047;28;20090;-40
2023/09/20 07:38:29;;;;;;;5.78;5.05;;;16.90;99.90;;;;;;5041321;28;20652;-40
2023/09/20 07:41:15;;;;;;;8.55;5.30;;;17.10;99.90;;;;;;5049335;28;20556;-40
2023/09/20 07:43:43;;;;;;;8.75;5.00;;;17.20;99.90;;;;;;5048126;28;20060;-39
2023/09/20 07:46:13;;;;;;;7.43;5.20;;;17.30;99.90;;;;;;5033856;28;20290;-41
2023/09/20 07:48:50;;;;;;;6.05;4.90;;;17.50;99.90;;;;;;5056942;28;20682;-39
2023/09/20 07:51:23;;;;;;;6.07;4.93;;;17.60;99.90;;;;;;5050926;28;20456;-37
2023/09/20 07:53:55;;;;;;;8.77;4.90;;;17.60;99.90;;;;;;5038357;28;20057;-39
2023/09/20 07:56:24;;;;;;;10.32;5.93;;;17.80;99.90;;;;;;5041962;28;20052;-38
2023/09/20 07:58:53;;;;;;;13.95;8.07;;;17.90;99.90;;;;;;5047568;28;20144;-39
2023/09/20 08:01:24;;;;;;;8.60;5.60;;;18.00;99.90;;;;;;5053046;28;20083;-41
2023/09/20 08:03:53;;;;;;;9.25;6.47;;;18.10;99.90;;;;;;5055990;28;20140;-42
2023/09/20 08:06:33;;;;;;;12.73;7.47;;;18.20;99.90;;;;;;5056715;28;20151;-39
2023/09/20 08:09:02;;;;;;;8.07;5.03;;;18.30;99.90;;;;;;5045283;28;20116;-41
2023/09/20 08:11:30;;;;;;;10.45;5.65;;;18.50;99.90;;;;;;5051319;28;20427;-39
2023/09/20 08:13:59;;;;;;;11.15;6.18;;;18.60;99.90;;;;;;5050780;28;20551;-41
2023/09/20 08:16:35;;;;;;;9.18;4.65;;;18.60;99.90;;;;;;5049527;28;20049;-41
2023/09/20 08:21:34;;;;;;;6.03;5.22;;;18.80;99.90;;;;;;5068626;28;20049;-41
2023/09/20 09:00:27;;;;;;;7.43;5.72;;;20.40;99.90;;;;;;5044050;28;20047;-41
2023/09/20 09:02:59;;;;;;;11.75;6.50;;;20.50;99.90;;;;;;5048741;28;20071;-40
2023/09/20 09:05:29;;;;;;;8.35;7.10;;;20.60;99.90;;;;;;5049424;28;20045;-40
2023/09/20 09:07:59;;;;;;;11.30;7.15;;;20.80;99.90;;;;;;5040971;28;20044;-41
2023/09/20 09:10:27;;;;;;;12.02;6.95;;;20.90;99.90;;;;;;5043800;28;20037;-39
2023/09/20 09:12:55;;;;;;;6.63;5.28;;;21.00;99.90;;;;;;5041371;28;20547;-40
2023/09/20 09:15:25;;;;;;;8.75;5.20;;;21.10;99.90;;;;;;5050352;28;20037;-42
2023/09/20 09:17:52;;;;;;;7.25;6.07;;;21.10;99.90;;;;;;5058732;28;20382;-38
2023/09/20 09:20:21;;;;;;;5.25;4.75;;;21.20;99.90;;;;;;5045794;28;20567;-41
2023/09/20 09:22:49;;;;;;;6.00;5.40;;;21.20;99.90;;;;;;5048030;28;20513;-41
2023/09/20 09:25:19;;;;;;;11.32;8.55;;;21.20;99.90;;;;;;5042196;28;20076;-41
2023/09/20 09:27:47;;;;;;;5.80;5.30;;;21.30;99.90;;;;;;5038597;28;20052;-41
2023/09/20 09:30:16;;;;;;;7.80;4.78;;;21.40;99.90;;;;;;5036358;28;20045;-41
2023/09/20 09:32:47;;;;;;;7.78;7.05;;;21.30;99.90;;;;;;5039676;28;20570;-41
2023/09/20 09:35:18;;;;;;;9.52;5.47;;;21.30;99.90;;;;;;5034511;28;20532;-40
2023/09/20 09:38:04;;;;;;;11.15;7.13;;;21.40;99.90;;;;;;5045154;28;20505;-41
2023/09/20 09:40:31;;;;;;;13.77;7.85;;;21.50;99.90;;;;;;5048634;28;20099;-41
2023/09/20 09:43:13;;;;;;;7.90;5.60;;;21.60;99.90;;;;;;5040740;28;20091;-41
2023/09/20 09:45:44;;;;;;;;;;;21.90;99.90;;;;;;5043804;28;20041;-41
2023/09/20 09:48:15;;;;;;;7.18;5.15;;;22.10;99.90;;;;;;5041529;28;19921;-41
2023/09/20 09:50:46;;;;;;;5.70;4.97;;;22.30;99.90;;;;;;5046927;28;20040;-41
2023/09/20 09:53:15;;;;;;;6.80;6.15;;;22.50;99.90;;;;;;5043671;28;20041;-39
2023/09/20 09:55:44;;;;;;;6.82;5.20;;;22.40;99.90;;;;;;5047365;28;20049;-40
2023/09/20 09:58:12;;;;;;;5.95;5.20;;;22.60;99.90;;;;;;5040204;28;20116;-40
2023/09/20 10:00:41;;;;;;;5.65;5.10;;;22.70;99.90;;;;;;5047824;28;20143;-41
2023/09/20 10:03:29;;;;;;;6.85;5.40;;;22.80;99.90;;;;;;5046881;28;20481;-38
2023/09/20 10:06:21;;;;;;;7.05;5.60;;;22.90;99.90;;;;;;5042642;28;20041;-38
2023/09/20 10:08:55;;;;;;;7.35;5.00;;;23.10;99.90;;;;;;5061588;28;20076;-40
2023/09/20 10:11:25;;;;;;;5.97;4.90;;;22.90;99.90;;;;;;5052482;28;20040;-39
2023/09/20 10:13:54;;;;;;;8.00;5.28;;;22.70;99.90;;;;;;5040434;28;20093;-42
2023/09/20 10:16:23;;;;;;;10.55;5.43;;;23.00;99.90;;;;;;5043734;28;20118;-38
2023/09/20 10:18:53;;;;;;;6.35;5.68;;;23.00;99.90;;;;;;5042851;28;20045;-41
2023/09/20 10:21:31;;;;;;;5.80;5.20;;;23.20;99.90;;;;;;5039463;28;20063;-37
2023/09/20 10:24:05;;;;;;;5.93;5.30;;;23.00;99.90;;;;;;5038826;28;20040;-39
2023/09/20 10:26:36;;;;;;;6.00;5.38;;;23.10;99.90;;;;;;5043352;28;20114;-41
2023/09/20 10:29:25;;;;;;;5.88;5.38;;;23.10;99.90;;;;;;5037458;28;20084;-40
2023/09/20 10:31:55;;;;;;;5.97;5.43;;;23.50;99.90;;;;;;5047749;28;20137;-41
2023/09/20 10:34:23;;;;;;;6.50;5.88;;;23.70;99.90;;;;;;5039969;28;20074;-41
2023/09/20 10:36:52;;;;;;;7.85;6.88;;;24.10;99.90;;;;;;5038473;28;20143;-39
2023/09/20 10:39:19;;;;;;;7.75;6.50;;;24.30;99.90;;;;;;5048137;28;20048;-39
2023/09/20 10:41:52;;;;;;;6.38;5.22;;;24.00;99.90;;;;;;5047333;28;20048;-40
2023/09/20 10:44:36;;;;;;;6.70;5.78;;;24.20;99.90;;;;;;5039469;28;20045;-38
2023/09/20 10:47:23;;;;;;;7.47;6.05;;;24.40;99.90;;;;;;5042917;28;20085;-39
2023/09/20 10:49:55;;;;;;;5.90;5.40;;;24.90;99.90;;;;;;5038168;28;20040;-40
2023/09/20 10:52:37;;;;;;;6.22;5.65;;;25.20;99.90;;;;;;5056905;28;20053;-40
2023/09/20 10:55:20;;;;;;;7.50;5.93;;;25.10;99.90;;;;;;5060296;28;20033;-41
2023/09/20 10:57:47;;;;;;;7.15;6.50;;;25.40;99.90;;;;;;5047239;28;20439;-41
2023/09/20 11:00:18;;;;;;;6.50;6.00;;;25.50;99.90;;;;;;5046344;28;20112;-36
2023/09/20 11:02:46;;;;;;;7.05;6.40;;;25.70;99.90;;;;;;5047391;28;20033;-41
2023/09/20 11:05:16;;;;;;;6.50;6.00;;;25.80;99.90;;;;;;5047132;28;20182;-37
2023/09/20 11:07:46;;;;;;;6.75;6.15;;;25.90;99.90;;;;;;5039755;28;20454;-39
2023/09/20 11:10:19;;;;;;;7.15;6.20;;;25.80;99.90;;;;;;5036607;28;20041;-41
2023/09/20 11:12:48;;;;;;;6.32;5.82;;;26.00;99.90;;;;;;5047320;28;20356;-40
2023/09/20 11:15:16;;;;;;;6.65;5.82;;;26.30;99.90;;;;;;5056763;28;20506;-38
2023/09/20 11:17:43;;;;;;;7.20;5.90;;;26.30;99.90;;;;;;5042586;28;20528;-38
2023/09/20 11:20:13;;;;;;;7.30;5.93;;;26.80;99.90;;;;;;5036888;28;20044;-39
2023/09/20 11:22:41;;;;;;;7.13;6.50;;;27.00;99.90;;;;;;5044302;28;20225;-40
2023/09/20 11:25:08;;;;;;;6.28;5.70;;;26.60;99.90;;;;;;5038792;28;20505;-41
2023/09/20 11:27:38;;;;;;;6.32;5.82;;;27.00;99.90;;;;;;5047460;28;20045;-38
2023/09/20 11:30:10;;;;;;;6.13;5.63;;;26.80;99.90;;;;;;5045707;28;20114;-39
2023/09/20 11:32:39;;;;;;;6.82;6.22;;;27.10;99.90;;;;;;5045080;28;20040;-39
2023/09/20 11:35:07;;;;;;;6.68;6.10;;;27.60;99.90;;;;;;5033358;28;20045;-40
2023/09/20 11:37:35;;;;;;;6.40;5.80;;;27.80;99.90;;;;;;5049755;28;20482;-40
2023/09/20 11:40:04;;;;;;;6.43;5.93;;;27.40;99.20;;;;;;5049080;28;20055;-41
2023/09/20 11:42:34;;;;;;;6.68;6.03;;;27.20;97.90;;;;;;5065835;28;20071;-41
2023/09/20 11:45:08;;;;;;;6.63;6.03;;;27.20;98.40;;;;;;5063387;28;20037;-41
2023/09/20 11:47:56;;;;;;;7.03;5.70;;;27.20;97.90;;;;;;5061872;28;20052;-43
2023/09/20 11:50:26;;;;;;;6.60;5.50;;;27.60;97.40;;;;;;5053150;28;20605;-43
2023/09/20 11:52:55;;;;;;;8.68;7.85;;;27.80;96.80;;;;;;5045126;28;20139;-40
2023/09/20 11:55:23;;;;;;;6.72;5.72;;;27.30;96.70;;;;;;5050935;28;20049;-39
2023/09/20 11:57:52;;;;;;;6.25;5.75;;;27.20;97.10;;;;;;5050277;28;20049;-41
2023/09/20 12:00:25;;;;;;;5.72;5.30;;;27.60;97.60;;;;;;5054069;28;20053;-41
2023/09/20 12:02:53;;;;;;;6.88;6.28;;;28.10;97.20;;;;;;5051909;28;20152;-40
2023/09/20 12:05:24;;;;;;;6.97;6.38;;;28.30;96.50;;;;;;5050201;28;20348;-43
2023/09/20 12:07:59;;;;;;;7.75;6.90;;;28.50;95.60;;;;;;5046472;28;20509;-43
2023/09/20 12:10:28;;;;;;;7.97;6.07;;;29.00;94.50;;;;;;5047106;28;20127;-40
2023/09/20 12:12:56;;;;;;;6.93;6.25;;;29.50;93.60;;;;;;5050281;28;20091;-42
2023/09/20 12:15:24;;;;;;;6.85;6.25;;;29.90;92.60;;;;;;5052448;28;20509;-42
2023/09/20 12:17:55;;;;;;;7.35;6.18;;;29.90;91.80;;;;;;5049398;28;20072;-38
2023/09/20 12:20:26;;;;;;;;;;;30.10;91.20;;;;;;5046812;28;20060;-40
2023/09/20 12:23:00;;;;;;;6.63;6.00;;;30.30;90.70;;;;;;5043327;28;19960;-39
2023/09/20 12:25:28;;;;;;;6.57;5.97;;;30.70;89.30;;;;;;5055663;28;20122;-40
2023/09/20 12:27:55;;;;;;;6.10;5.60;;;31.10;86.20;;;;;;5058225;28;20036;-41
2023/09/20 12:30:27;;;;;;;6.55;5.53;;;30.30;87.00;;;;;;5048321;28;20056;-39
2023/09/20 12:32:56;;;;;;;6.75;6.15;;;30.60;86.70;;;;;;5050830;28;20059;-40
2023/09/20 12:35:26;;;;;;;6.65;6.00;;;30.90;87.30;;;;;;5040520;28;20099;-39
2023/09/20 12:37:54;;;;;;;6.45;5.85;;;31.50;84.00;;;;;;5046218;28;20083;-41
2023/09/20 12:40:24;;;;;;;6.50;6.00;;;32.10;82.30;;;;;;5041394;28;20111;-40
2023/09/20 12:42:51;;;;;;;6.47;5.80;;;32.60;80.10;;;;;;5046786;28;20509;-41
2023/09/20 12:45:19;;;;;;;6.57;6.07;;;31.80;80.10;;;;;;5051099;28;20055;-40
2023/09/20 12:47:48;;;;;;;7.75;6.07;;;32.40;79.40;;;;;;5031068;28;20138;-40
2023/09/20 12:50:17;;;;;;;6.45;5.95;;;33.20;78.50;;;;;;5042232;28;20040;-40
2023/09/20 12:52:47;;;;;;;6.35;5.85;;;33.00;77.50;;;;;;5048855;28;20080;-42
2023/09/20 12:55:15;;;;;;;6.78;6.18;;;33.90;73.70;;;;;;5055684;28;20053;-41
2023/09/20 12:57:42;;;;;;;7.13;6.53;;;34.70;71.00;;;;;;5058396;28;20091;-40
2023/09/20 13:00:16;;;;;;;7.13;6.45;;;35.30;70.50;;;;;;5048990;28;20152;-39
2023/09/20 13:03:06;;;;;;;7.07;6.47;;;35.90;66.70;;;;;;5054744;28;20052;-40
2023/09/20 13:05:36;;;;;;;7.30;6.70;;;36.10;63.40;;;;;;5048052;28;20516;-40
2023/09/20 13:08:06;;;;;;;7.95;7.13;;;36.00;61.10;;;;;;5048565;28;20037;-41
2023/09/20 13:10:34;;;;;;;7.35;6.63;;;35.60;60.00;;;;;;5041630;28;20045;-39
2023/09/20 13:13:08;;;;;;;7.45;6.70;;;36.60;60.40;;;;;;5049869;28;20055;-44
2023/09/20 13:15:39;;;;;;;6.95;6.35;;;37.60;58.50;;;;;;5044846;28;20041;-41
2023/09/20 13:18:10;;;;;;;7.43;6.82;;;37.30;59.00;;;;;;5041589;28;20041;-42
2023/09/20 13:20:41;;;;;;;6.90;6.40;;;37.60;57.90;;;;;;5049012;28;20049;-40
2023/09/20 13:23:10;;;;;;;7.43;6.80;;;38.40;56.50;;;;;;5041623;28;20466;-41
2023/09/20 13:25:43;;;;;;;7.20;6.70;;;37.70;54.00;;;;;;5048557;28;20057;-41
2023/09/20 13:28:12;;;;;;;7.63;6.93;;;39.00;54.00;;;;;;5044142;28;20402;-45
2023/09/20 13:30:41;;;;;;;7.70;7.10;;;40.40;51.90;;;;;;5048432;28;20406;-40
2023/09/20 13:33:10;;;;;;;7.57;6.95;;;39.80;50.20;;;;;;5049483;28;20119;-41
2023/09/20 13:35:39;;;;;;;7.67;6.97;;;38.70;51.60;;;;;;5040656;28;20080;-42
2023/09/20 13:38:07;;;;;;;7.40;6.80;;;38.00;52.10;;;;;;5046842;28;20063;-41
2023/09/20 13:40:36;;;;;;;7.72;7.10;;;37.80;53.00;;;;;;5048242;28;20468;-43